Time;durP1;ratioP1;P1;durP2;ratioP2;P2;SDS_P1;SDS_P2;PMS_P1;PMS_P2;Temp;Humidity;BMP_temperature;BMP_pressure;BME280_temperature;BME280_humidity;BME280_pressure;Samples;Min_cycle;Max_cycle;Signal;HPM_P1;HPM_P2
2023/08/05 00:01:29;;;;;;;0.40;0.20;;;;;;;16.74;99.54;100203.09;4997255;28;20493;-51
2023/08/05 00:03:55;;;;;;;0.40;0.20;;;;;;;16.63;100.00;100210.84;5002224;28;20825;-51
2023/08/05 00:06:22;;;;;;;0.40;0.20;;;;;;;16.77;99.65;100200.25;5003733;28;20461;-51
2023/08/05 00:08:48;;;;;;;0.40;0.20;;;;;;;16.73;99.61;100209.44;4998462;28;20827;-51
2023/08/05 00:11:15;;;;;;;0.40;0.20;;;;;;;16.70;100.00;100203.34;5006309;28;20472;-51
2023/08/05 00:13:41;;;;;;;0.40;0.20;;;;;;;16.72;100.00;100198.75;4997821;28;20813;-51
2023/08/05 00:16:07;;;;;;;0.40;0.20;;;;;;;16.68;100.00;100199.88;5001637;28;20475;-52
2023/08/05 00:18:34;;;;;;;0.40;0.20;;;;;;;16.69;100.00;100205.16;4997156;28;21041;-52
2023/08/05 00:21:00;;;;;;;0.40;0.20;;;;;;;16.71;99.71;100202.38;5003416;28;20490;-51
2023/08/05 00:23:27;;;;;;;0.40;0.20;;;;;;;16.73;99.95;100201.38;5005940;28;20476;-51
2023/08/05 00:25:53;;;;;;;0.40;0.20;;;;;;;16.56;100.00;100206.75;5000375;28;20425;-51
2023/08/05 00:28:20;;;;;;;0.40;0.20;;;;;;;16.37;100.00;100206.88;5005662;28;20942;-52
2023/08/05 00:30:46;;;;;;;0.40;0.20;;;;;;;16.35;100.00;100206.09;5001625;28;20854;-51
2023/08/05 00:33:12;;;;;;;0.40;0.20;;;;;;;16.32;100.00;100208.97;4999103;28;20453;-52
2023/08/05 00:35:39;;;;;;;0.40;0.20;;;;;;;16.27;100.00;100221.72;5002937;28;20508;-51
2023/08/05 00:38:05;;;;;;;0.40;0.20;;;;;;;16.09;100.00;100222.72;5005614;28;20459;-50
2023/08/05 00:40:32;;;;;;;0.40;0.20;;;;;;;15.97;100.00;100229.56;4994715;28;20481;-51
2023/08/05 00:42:58;;;;;;;0.40;0.20;;;;;;;15.88;100.00;100227.34;5006418;28;20456;-52
2023/08/05 00:45:25;;;;;;;0.43;0.20;;;;;;;15.72;100.00;100218.38;5001941;28;20458;-51
2023/08/05 00:47:52;;;;;;;0.40;0.20;;;;;;;15.75;100.00;100219.06;4997453;28;20535;-52
2023/08/05 00:50:19;;;;;;;0.40;0.20;;;;;;;15.84;100.00;100225.78;5000635;28;20991;-52
2023/08/05 00:52:46;;;;;;;0.40;0.20;;;;;;;15.70;100.00;100229.16;5005085;28;20460;-51
2023/08/05 00:55:13;;;;;;;0.40;0.20;;;;;;;15.72;100.00;100227.28;5004019;28;20452;-52
2023/08/05 00:57:39;;;;;;;0.40;0.30;;;;;;;15.76;100.00;100227.97;4995827;28;20480;-52
2023/08/05 01:00:06;;;;;;;0.40;0.20;;;;;;;15.60;100.00;100228.75;4997593;28;20477;-52
2023/08/05 01:02:33;;;;;;;0.40;0.20;;;;;;;15.56;100.00;100231.66;5001439;28;20489;-52
2023/08/05 01:04:59;;;;;;;0.40;0.20;;;;;;;15.44;100.00;100218.84;5001293;28;20488;-52
2023/08/05 01:07:27;;;;;;;0.40;0.20;;;;;;;15.28;100.00;100232.16;5003394;28;20838;-52
2023/08/05 01:09:53;;;;;;;0.40;0.20;;;;;;;15.37;100.00;100223.66;5002513;28;20448;-51
2023/08/05 01:12:20;;;;;;;0.40;0.20;;;;;;;15.28;100.00;100226.78;5002888;28;20453;-51
2023/08/05 01:14:46;;;;;;;0.40;0.20;;;;;;;15.27;100.00;100230.41;5007622;28;20540;-51
2023/08/05 01:17:13;;;;;;;0.40;0.20;;;;;;;15.22;100.00;100232.47;4999468;28;20448;-52
2023/08/05 01:19:41;;;;;;;0.40;0.20;;;;;;;15.29;100.00;100216.00;5002088;28;21062;-51
2023/08/05 01:22:26;;;;;;;0.40;0.20;;;;;;;15.36;100.00;100221.94;5008835;28;20511;-52
2023/08/05 01:24:55;;;;;;;0.40;0.20;;;;;;;15.24;100.00;100220.72;5004317;28;20452;-52
2023/08/05 01:27:25;;;;;;;0.40;0.20;;;;;;;15.29;100.00;100223.16;5004204;28;20449;-50
2023/08/05 01:29:52;;;;;;;0.40;0.20;;;;;;;15.15;100.00;100229.19;5008525;28;20501;-51
2023/08/05 01:32:20;;;;;;;0.40;0.20;;;;;;;15.18;100.00;100226.34;5004921;28;20467;-50
2023/08/05 01:34:47;;;;;;;0.40;0.20;;;;;;;15.10;100.00;100220.53;5001036;28;20464;-50
2023/08/05 01:37:13;;;;;;;0.40;0.20;;;;;;;15.04;100.00;100216.31;5006504;28;21027;-50
2023/08/05 01:39:40;;;;;;;0.40;0.20;;;;;;;14.96;100.00;100214.97;4999755;28;21021;-51
2023/08/05 01:42:07;;;;;;;0.40;0.20;;;;;;;14.99;100.00;100206.78;5004883;28;20519;-51
2023/08/05 01:44:33;;;;;;;0.40;0.20;;;;;;;14.91;100.00;100201.78;5005833;28;20438;-50
2023/08/05 01:47:00;;;;;;;0.40;0.20;;;;;;;14.88;100.00;100204.63;5005540;28;20450;-50
2023/08/05 01:49:26;;;;;;;0.40;0.20;;;;;;;15.02;100.00;100207.50;5003963;28;20522;-50
2023/08/05 01:51:52;;;;;;;0.40;0.20;;;;;;;14.93;100.00;100209.75;5003795;28;20457;-50
2023/08/05 01:54:19;;;;;;;0.40;0.20;;;;;;;14.99;100.00;100206.78;5002822;28;20827;-51
2023/08/05 01:56:45;;;;;;;0.40;0.20;;;;;;;14.78;100.00;100200.63;5003326;28;20453;-51
2023/08/05 01:59:12;;;;;;;0.40;0.20;;;;;;;14.90;100.00;100208.06;5001441;28;20960;-51
2023/08/05 02:01:45;;;;;;;0.40;0.20;;;;;;;14.77;100.00;100212.28;5005586;28;20543;-50
2023/08/05 02:04:12;;;;;;;0.40;0.20;;;;;;;14.85;100.00;100203.91;5004357;28;20543;-50
2023/08/05 02:06:39;;;;;;;0.40;0.20;;;;;;;14.77;100.00;100186.38;5001627;28;20460;-50
2023/08/05 02:09:07;;;;;;;0.40;0.20;;;;;;;14.78;100.00;100188.13;5002149;28;20806;-51
2023/08/05 02:11:34;;;;;;;0.40;0.20;;;;;;;14.79;100.00;100183.63;5005261;28;20867;-51
2023/08/05 02:14:01;;;;;;;0.40;0.20;;;;;;;14.76;100.00;100191.81;4999146;28;20535;-51
2023/08/05 02:16:27;;;;;;;0.40;0.20;;;;;;;14.71;100.00;100186.69;5008085;28;20949;-51
2023/08/05 02:18:54;;;;;;;0.40;0.20;;;;;;;14.68;100.00;100196.69;4988080;28;20484;-51
2023/08/05 02:21:21;;;;;;;0.40;0.20;;;;;;;14.58;100.00;100196.22;5000758;28;20859;-51
2023/08/05 02:23:48;;;;;;;0.40;0.20;;;;;;;14.72;100.00;100193.78;5007279;28;20531;-51
2023/08/05 02:26:14;;;;;;;0.40;0.20;;;;;;;14.76;100.00;100197.16;5006310;28;20455;-51
2023/08/05 02:28:41;;;;;;;0.40;0.20;;;;;;;14.69;100.00;100198.41;5006853;28;20481;-51
2023/08/05 02:31:07;;;;;;;0.40;0.20;;;;;;;14.61;100.00;100203.25;5007198;28;21040;-50
2023/08/05 02:33:33;;;;;;;0.40;0.20;;;;;;;14.63;100.00;100196.00;5001437;28;20980;-51
2023/08/05 02:36:00;;;;;;;0.40;0.20;;;;;;;14.79;100.00;100188.97;5000576;28;20449;-50
2023/08/05 02:38:27;;;;;;;0.40;0.20;;;;;;;14.76;100.00;100184.66;5006552;28;20484;-51
2023/08/05 02:40:55;;;;;;;0.40;0.20;;;;;;;14.77;100.00;100183.72;5002657;28;20532;-51
2023/08/05 02:43:22;;;;;;;0.40;0.20;;;;;;;14.65;100.00;100186.09;4995917;28;20512;-51
2023/08/05 02:45:56;;;;;;;0.40;0.20;;;;;;;14.69;100.00;100182.34;4995301;28;20450;-51
2023/08/05 02:48:23;;;;;;;0.40;0.20;;;;;;;14.56;100.00;100167.81;4993807;28;20938;-51
2023/08/05 02:50:51;;;;;;;0.40;0.20;;;;;;;14.36;100.00;100166.88;5000584;28;21815;-51
2023/08/05 02:53:17;;;;;;;0.40;0.20;;;;;;;14.39;100.00;100171.22;5007462;28;20954;-50
2023/08/05 02:55:44;;;;;;;2.13;2.10;;;;;;;14.41;100.00;100169.38;5007583;28;20453;-51
2023/08/05 02:58:11;;;;;;;0.40;0.20;;;;;;;14.43;100.00;100176.38;4996583;28;20454;-51
2023/08/05 03:00:37;;;;;;;0.40;0.20;;;;;;;14.51;100.00;100163.53;5002171;28;21408;-51
2023/08/05 03:03:04;;;;;;;0.40;0.20;;;;;;;14.52;100.00;100165.25;4995568;28;20515;-51
2023/08/05 03:05:31;;;;;;;0.40;0.20;;;;;;;14.45;100.00;100154.94;5006827;28;20947;-51
2023/08/05 03:07:57;;;;;;;0.40;0.20;;;;;;;14.48;100.00;100150.31;5003323;28;20503;-51
2023/08/05 03:10:23;;;;;;;0.40;0.20;;;;;;;14.43;100.00;100157.66;5006410;28;20481;-50
2023/08/05 03:12:50;;;;;;;0.40;0.20;;;;;;;14.37;100.00;100152.56;4994301;28;20853;-50
2023/08/05 03:15:16;;;;;;;0.40;0.20;;;;;;;14.35;100.00;100159.81;5000216;28;20466;-50
2023/08/05 03:17:43;;;;;;;0.40;0.20;;;;;;;14.41;100.00;100150.66;5006189;28;20484;-51
2023/08/05 03:20:30;;;;;;;0.40;0.20;;;;;;;14.47;100.00;100147.72;5006471;28;21141;-50
2023/08/05 03:22:57;;;;;;;0.40;0.20;;;;;;;14.36;100.00;100150.84;4991876;28;20485;-51
2023/08/05 03:25:26;;;;;;;0.40;0.20;;;;;;;14.28;100.00;100150.34;5005434;28;20533;-50
2023/08/05 03:27:52;;;;;;;0.40;0.20;;;;;;;14.20;100.00;100144.47;4993443;28;20453;-50
2023/08/05 03:30:19;;;;;;;0.40;0.20;;;;;;;14.24;100.00;100143.38;5000926;28;20488;-50
2023/08/05 03:32:48;;;;;;;0.40;0.20;;;;;;;14.24;100.00;100143.38;4999276;28;20902;-50
2023/08/05 03:35:15;;;;;;;0.40;0.20;;;;;;;14.18;100.00;100151.69;4998236;28;20460;-50
2023/08/05 03:37:43;;;;;;;0.40;0.20;;;;;;;14.14;100.00;100152.78;4999296;28;20441;-50
2023/08/05 03:40:10;;;;;;;0.40;0.20;;;;;;;14.24;100.00;100154.06;4995614;28;20484;-50
2023/08/05 03:42:36;;;;;;;0.40;0.20;;;;;;;14.29;100.00;100153.88;4996603;28;21080;-50
2023/08/05 03:45:04;;;;;;;0.40;0.20;;;;;;;14.20;100.00;100155.16;5005157;28;20686;-50
2023/08/05 03:47:32;;;;;;;0.40;0.20;;;;;;;14.16;100.00;100161.59;5003375;28;20458;-50
2023/08/05 03:49:58;;;;;;;0.40;0.20;;;;;;;14.07;100.00;100168.22;5000954;28;20485;-50
2023/08/05 03:52:26;;;;;;;0.40;0.20;;;;;;;14.05;100.00;100172.75;5005971;28;20831;-50
2023/08/05 03:54:53;;;;;;;0.40;0.20;;;;;;;14.03;100.00;100182.66;4997834;28;20520;-51
2023/08/05 03:57:20;;;;;;;0.40;0.20;;;;;;;13.99;100.00;100186.41;4998415;28;20640;-51
2023/08/05 03:59:47;;;;;;;0.40;0.20;;;;;;;14.04;100.00;100191.53;5002437;28;20478;-51
2023/08/05 04:02:14;;;;;;;0.40;0.20;;;;;;;14.05;100.00;100198.63;4999233;28;20495;-51
2023/08/05 04:04:42;;;;;;;0.40;0.20;;;;;;;13.93;100.00;100200.91;5002365;28;20826;-51
2023/08/05 04:07:09;;;;;;;0.40;0.20;;;;;;;14.14;100.00;100198.22;5005586;28;20457;-51
2023/08/05 04:09:37;;;;;;;0.40;0.20;;;;;;;14.04;100.00;100205.78;5002857;28;20981;-51
2023/08/05 04:12:05;;;;;;;0.40;0.20;;;;;;;14.11;100.00;100204.56;4999004;28;20430;-51
2023/08/05 04:14:31;;;;;;;0.40;0.20;;;;;;;13.92;100.00;100214.31;5001287;28;20508;-51
2023/08/05 04:16:59;;;;;;;0.40;0.20;;;;;;;13.92;100.00;100220.53;5005837;28;20884;-51
2023/08/05 04:19:26;;;;;;;0.40;0.20;;;;;;;13.85;100.00;100215.56;5004712;28;20448;-51
2023/08/05 04:21:52;;;;;;;0.40;0.20;;;;;;;13.94;100.00;100210.66;4999014;28;21017;-51
2023/08/05 04:24:22;;;;;;;0.40;0.20;;;;;;;13.79;100.00;100216.66;5000268;28;20457;-51
2023/08/05 04:26:50;;;;;;;0.40;0.20;;;;;;;13.93;100.00;100219.59;5007334;28;20464;-51
2023/08/05 04:29:18;;;;;;;0.40;0.20;;;;;;;13.96;100.00;100223.06;4999350;28;20435;-51
2023/08/05 04:31:45;;;;;;;0.40;0.20;;;;;;;13.84;100.00;100227.13;4986068;28;20531;-51
2023/08/05 04:34:12;;;;;;;0.83;0.83;;;;;;;13.97;100.00;100223.00;4999078;28;20449;-51
2023/08/05 04:36:38;;;;;;;0.40;0.20;;;;;;;13.94;100.00;100231.16;4986363;28;20448;-51
2023/08/05 04:39:06;;;;;;;0.40;0.20;;;;;;;13.98;100.00;100223.88;5001234;28;20453;-51
2023/08/05 04:41:33;;;;;;;0.40;0.20;;;;;;;14.00;100.00;100228.25;5002844;28;20581;-51
2023/08/05 04:43:59;;;;;;;0.40;0.20;;;;;;;14.11;100.00;100225.06;5004298;28;20945;-51
2023/08/05 04:46:26;;;;;;;0.40;0.20;;;;;;;13.93;100.00;100227.63;5002796;28;20461;-51
2023/08/05 04:48:52;;;;;;;0.40;0.20;;;;;;;14.14;100.00;100217.81;5009189;28;20531;-51
2023/08/05 04:51:18;;;;;;;0.40;0.20;;;;;;;14.22;100.00;100223.66;4999246;28;20845;-51
2023/08/05 04:53:45;;;;;;;0.40;0.20;;;;;;;14.40;100.00;100213.97;5009002;28;20448;-51
2023/08/05 04:56:11;;;;;;;0.40;0.20;;;;;;;15.15;100.00;100225.66;5002646;28;20478;-51
2023/08/05 04:58:38;;;;;;;0.40;0.20;;;;;;;15.77;99.40;100219.03;5002413;28;20453;-51
2023/08/05 05:01:04;;;;;;;0.40;0.20;;;;;;;16.41;97.44;100221.84;5008995;28;20516;-51
2023/08/05 05:03:30;;;;;;;0.40;0.20;;;;;;;16.93;95.03;100220.88;5008970;28;20578;-51
2023/08/05 05:05:57;;;;;;;0.40;0.20;;;;;;;17.13;93.45;100218.81;5001003;28;20476;-51
2023/08/05 05:08:24;;;;;;;0.40;0.20;;;;;;;17.41;92.22;100217.22;5006694;28;20884;-51
2023/08/05 05:10:50;;;;;;;0.40;0.20;;;;;;;17.83;91.54;100230.00;5008131;28;20473;-51
2023/08/05 05:13:17;;;;;;;0.40;0.20;;;;;;;17.80;90.95;100227.47;5008693;28;20478;-51
2023/08/05 05:15:43;;;;;;;0.40;0.20;;;;;;;18.01;90.76;100225.34;5003132;28;20456;-51
2023/08/05 05:18:10;;;;;;;0.40;0.20;;;;;;;17.79;91.27;100232.94;5002332;28;20453;-51
2023/08/05 05:20:36;;;;;;;0.40;0.20;;;;;;;18.45;89.02;100224.44;5013432;28;20483;-51
2023/08/05 05:23:03;;;;;;;0.40;0.20;;;;;;;18.62;89.42;100224.22;5001946;28;20520;-51
2023/08/05 05:25:29;;;;;;;0.40;0.20;;;;;;;18.79;88.32;100223.22;5007277;28;20877;-51
2023/08/05 05:27:55;;;;;;;0.40;0.20;;;;;;;18.81;87.34;100224.84;5008445;28;20543;-51
2023/08/05 05:30:22;;;;;;;0.40;0.20;;;;;;;19.09;87.79;100218.56;5003437;28;20562;-51
2023/08/05 05:32:48;;;;;;;0.40;0.20;;;;;;;19.23;86.90;100215.81;5011430;28;20424;-51
2023/08/05 05:35:15;;;;;;;0.40;0.20;;;;;;;19.11;87.37;100218.44;5003548;28;20441;-51
2023/08/05 05:37:41;;;;;;;0.40;0.20;;;;;;;18.93;87.94;100212.44;5001806;28;20428;-51
2023/08/05 05:40:08;;;;;;;0.40;0.20;;;;;;;19.03;88.38;100210.84;4997467;28;20477;-51
2023/08/05 05:42:35;;;;;;;0.40;0.20;;;;;;;19.13;87.89;100209.28;5005008;28;20801;-51
2023/08/05 05:45:01;;;;;;;0.40;0.20;;;;;;;19.37;87.27;100201.44;5003233;28;20487;-51
2023/08/05 05:47:28;;;;;;;0.40;0.20;;;;;;;19.17;87.48;100199.16;5008242;28;20453;-51
2023/08/05 05:49:54;;;;;;;0.40;0.20;;;;;;;18.78;89.35;100202.63;4995090;28;20456;-51
2023/08/05 05:52:21;;;;;;;0.40;0.20;;;;;;;18.93;88.73;100199.81;4998212;28;20454;-51
2023/08/05 05:54:47;;;;;;;0.40;0.20;;;;;;;18.85;89.49;100202.13;5006244;28;20961;-51
2023/08/05 05:57:14;;;;;;;0.40;0.20;;;;;;;19.13;88.05;100197.66;5008103;28;20431;-51
2023/08/05 05:59:40;;;;;;;0.40;0.20;;;;;;;19.27;87.64;100188.66;5003124;28;20501;-51
2023/08/05 06:02:07;;;;;;;0.40;0.20;;;;;;;19.50;86.09;100191.56;5000782;28;20568;-51
2023/08/05 06:04:34;;;;;;;0.40;0.20;;;;;;;19.76;85.69;100192.53;5006257;28;20424;-51
2023/08/05 06:07:02;;;;;;;0.40;0.20;;;;;;;19.60;86.06;100194.53;5004562;28;20496;-51
2023/08/05 06:09:30;;;;;;;0.40;0.20;;;;;;;19.65;85.81;100199.63;5003052;28;20583;-51
2023/08/05 06:11:57;;;;;;;0.40;0.20;;;;;;;19.63;85.62;100188.94;5001135;28;20434;-51
2023/08/05 06:14:23;;;;;;;0.40;0.20;;;;;;;19.80;85.80;100194.03;5005607;28;20454;-51
2023/08/05 06:16:49;;;;;;;0.40;0.20;;;;;;;19.57;86.70;100180.38;5007784;28;20456;-51
2023/08/05 06:19:16;;;;;;;0.40;0.20;;;;;;;19.38;87.50;100178.03;5003281;28;20491;-51
2023/08/05 06:21:43;;;;;;;0.40;0.20;;;;;;;19.30;87.87;100186.63;5000880;28;20424;-51
2023/08/05 06:24:10;;;;;;;0.40;0.20;;;;;;;19.45;87.37;100180.19;5011459;28;21005;-51
2023/08/05 06:26:37;;;;;;;0.47;0.20;;;;;;;19.44;87.16;100183.88;5000920;28;20474;-51
2023/08/05 06:29:04;;;;;;;0.40;0.20;;;;;;;19.75;87.05;100189.94;5006777;28;20465;-51
2023/08/05 06:31:30;;;;;;;0.40;0.20;;;;;;;20.00;86.95;100194.50;5007994;28;20447;-51
2023/08/05 06:33:57;;;;;;;0.40;0.20;;;;;;;19.60;87.37;100186.44;4996875;28;20438;-51
2023/08/05 06:36:23;;;;;;;0.40;0.20;;;;;;;19.47;88.87;100182.81;5007318;28;20452;-51
2023/08/05 06:38:50;;;;;;;0.40;0.20;;;;;;;19.87;88.36;100177.41;4996367;28;20992;-51
2023/08/05 06:41:16;;;;;;;0.87;0.87;;;;;;;19.38;89.41;100175.34;5006890;28;20990;-51
2023/08/05 06:43:43;;;;;;;0.40;0.20;;;;;;;19.56;88.64;100171.44;4994275;28;20543;-51
2023/08/05 06:46:10;;;;;;;0.40;0.20;;;;;;;19.47;90.01;100175.59;5003232;28;20461;-51
2023/08/05 06:48:36;;;;;;;0.40;0.20;;;;;;;19.79;88.37;100178.81;4986174;28;20424;-51
2023/08/05 06:51:03;;;;;;;0.40;0.20;;;;;;;20.29;88.12;100173.59;4995141;28;20538;-51
2023/08/05 06:53:29;;;;;;;0.40;0.20;;;;;;;20.27;86.82;100167.41;5004551;28;20449;-51
2023/08/05 06:56:03;;;;;;;0.40;0.20;;;;;;;19.77;88.44;100167.28;5008398;28;20466;-51
2023/08/05 06:58:29;;;;;;;0.50;0.30;;;;;;;20.32;87.41;100173.38;5005376;28;20506;-51
2023/08/05 07:00:57;;;;;;;0.40;0.20;;;;;;;19.91;89.10;100160.06;4999504;28;20530;-51
2023/08/05 07:03:24;;;;;;;0.40;0.20;;;;;;;20.15;87.70;100170.97;5000971;28;20463;-51
2023/08/05 07:05:55;;;;;;;0.40;0.20;;;;;;;20.13;86.99;100162.97;5006727;28;20837;-51
2023/08/05 07:08:23;;;;;;;0.40;0.20;;;;;;;20.17;87.66;100153.72;5003610;28;20475;-51
2023/08/05 07:10:57;;;;;;;0.40;0.20;;;;;;;19.93;88.66;100150.88;5006358;28;20516;-51
2023/08/05 07:13:25;;;;;;;0.50;0.30;;;;;;;20.39;86.93;100159.31;5006587;28;20482;-51
2023/08/05 07:16:01;;;;;;;0.40;0.20;;;;;;;20.23;86.77;100158.66;5001824;28;20451;-51
2023/08/05 07:18:28;;;;;;;0.40;0.20;;;;;;;19.99;86.90;100149.59;4999969;28;20427;-51
2023/08/05 07:20:55;;;;;;;0.40;0.20;;;;;;;20.47;86.98;100147.13;5002983;28;20514;-51
2023/08/05 07:23:22;;;;;;;0.40;0.20;;;;;;;20.39;86.10;100153.03;5006651;28;20595;-51
2023/08/05 07:25:48;;;;;;;0.40;0.20;;;;;;;20.88;84.27;100139.59;5003869;28;20423;-51
2023/08/05 07:28:15;;;;;;;0.40;0.20;;;;;;;20.90;83.94;100143.03;4999730;28;20419;-51
2023/08/05 07:30:41;;;;;;;0.50;0.30;;;;;;;20.53;85.05;100142.13;5002626;28;20492;-51
2023/08/05 07:33:09;;;;;;;0.40;0.20;;;;;;;20.45;86.83;100141.00;5006524;28;20910;-51
2023/08/05 07:35:36;;;;;;;0.40;0.20;;;;;;;20.44;87.49;100140.13;5004181;28;20428;-51
2023/08/05 07:38:09;;;;;;;0.40;0.20;;;;;;;20.65;84.69;100135.00;4999009;28;20476;-51
2023/08/05 07:40:38;;;;;;;0.40;0.20;;;;;;;20.88;83.95;100125.22;5005091;28;20472;-51
2023/08/05 07:43:06;;;;;;;0.40;0.20;;;;;;;20.90;84.33;100131.34;4999133;28;20571;-51
2023/08/05 07:45:35;;;;;;;0.40;0.20;;;;;;;20.84;84.32;100132.69;5005065;28;20424;-51
2023/08/05 07:48:06;;;;;;;0.40;0.20;;;;;;;21.18;83.43;100131.03;5006730;28;20449;-51
2023/08/05 07:50:34;;;;;;;0.50;0.30;;;;;;;21.12;82.68;100125.22;5005703;28;21035;-51
2023/08/05 07:53:00;;;;;;;0.40;0.20;;;;;;;21.45;82.20;100122.69;4998652;28;20427;-51
2023/08/05 07:55:30;;;;;;;0.50;0.20;;;;;;;21.59;80.65;100117.09;4999042;28;20490;-51
2023/08/05 07:57:56;;;;;;;0.50;0.30;;;;;;;21.13;82.70;100113.44;4999234;28;20481;-51
2023/08/05 08:00:23;;;;;;;0.40;0.20;;;;;;;21.36;82.61;100111.72;5001463;28;20976;-51
2023/08/05 08:02:50;;;;;;;0.50;0.20;;;;;;;21.04;82.97;100117.69;5010290;28;20488;-51
2023/08/05 08:05:17;;;;;;;0.40;0.20;;;;;;;21.41;82.58;100115.81;4999222;28;20453;-51
2023/08/05 08:07:46;;;;;;;0.50;0.20;;;;;;;21.87;78.74;100106.81;5003462;28;20581;-52
2023/08/05 08:10:14;;;;;;;0.50;0.20;;;;;;;21.75;78.96;100111.34;5005586;28;20519;-51
2023/08/05 08:12:41;;;;;;;0.50;0.30;;;;;;;21.96;80.66;100103.41;5003286;28;20552;-51
2023/08/05 08:15:08;;;;;;;0.50;0.20;;;;;;;22.13;79.53;100102.09;5003043;28;20950;-51
2023/08/05 08:17:35;;;;;;;0.50;0.30;;;;;;;21.65;81.10;100104.06;5006768;28;20436;-51
2023/08/05 08:20:06;;;;;;;0.50;0.20;;;;;;;21.43;80.91;100100.31;5009752;28;20444;-51
2023/08/05 08:22:33;;;;;;;0.50;0.30;;;;;;;21.83;79.75;100099.94;5006318;28;20952;-51
2023/08/05 08:24:59;;;;;;;0.50;0.30;;;;;;;22.02;79.24;100088.50;5002851;28;20428;-51
2023/08/05 08:27:25;;;;;;;0.50;0.30;;;;;;;21.59;79.20;100092.75;5005892;28;20465;-51
2023/08/05 08:29:52;;;;;;;0.40;0.20;;;;;;;21.94;79.68;100090.97;5009524;28;20473;-51
2023/08/05 08:32:18;;;;;;;0.50;0.30;;;;;;;21.90;78.59;100082.22;4996355;28;20464;-51
2023/08/05 08:34:45;;;;;;;0.40;0.20;;;;;;;22.64;74.00;100079.91;5009596;28;20449;-51
2023/08/05 08:37:11;;;;;;;0.40;0.20;;;;;;;21.85;76.78;100079.88;5006484;28;20430;-51
2023/08/05 08:39:38;;;;;;;0.50;0.20;;;;;;;22.19;76.29;100082.63;5002416;28;20555;-51
2023/08/05 08:42:05;;;;;;;0.50;0.30;;;;;;;22.21;74.76;100075.28;5005923;28;20453;-51
2023/08/05 08:44:32;;;;;;;0.50;0.30;;;;;;;22.14;74.78;100072.19;5005388;28;20465;-51
2023/08/05 08:46:59;;;;;;;0.40;0.20;;;;;;;22.36;73.59;100075.88;5015923;28;20455;-51
2023/08/05 08:49:27;;;;;;;0.50;0.30;;;;;;;22.77;73.76;100076.06;5002656;28;20511;-51
2023/08/05 08:51:54;;;;;;;0.50;0.30;;;;;;;22.44;71.39;100068.84;5005012;28;20453;-51
2023/08/05 08:54:22;;;;;;;0.50;0.30;;;;;;;21.79;73.83;100058.72;5009288;28;20455;-51
2023/08/05 08:56:48;;;;;;;0.50;0.20;;;;;;;22.16;76.14;100066.66;5007220;28;20970;-51
2023/08/05 08:59:15;;;;;;;0.50;0.20;;;;;;;22.32;74.38;100067.13;5002226;28;20423;-51
2023/08/05 09:01:42;;;;;;;0.50;0.20;;;;;;;22.53;74.07;100071.81;5004427;28;20428;-51
2023/08/05 09:04:11;;;;;;;0.47;0.23;;;;;;;22.83;73.20;100065.72;5008746;28;21076;-51
2023/08/05 09:06:41;;;;;;;0.47;0.20;;;;;;;23.34;71.99;100057.78;5007530;28;20452;-51
2023/08/05 09:09:07;;;;;;;0.40;0.20;;;;;;;23.46;72.53;100050.44;5002265;28;20422;-51
2023/08/05 09:11:33;;;;;;;0.63;0.50;;;;;;;23.69;70.29;100045.75;5002848;28;20469;-51
2023/08/05 09:14:03;;;;;;;0.50;0.20;;;;;;;23.16;70.08;100040.34;5008679;28;20899;-51
2023/08/05 09:16:29;;;;;;;0.40;0.20;;;;;;;23.49;70.20;100044.75;5008956;28;20819;-51
2023/08/05 09:18:56;;;;;;;0.50;0.20;;;;;;;23.33;69.46;100034.34;4989465;28;20488;-51
2023/08/05 09:21:26;;;;;;;0.43;0.20;;;;;;;23.03;69.81;100035.97;5001847;28;20474;-51
2023/08/05 09:23:55;;;;;;;0.50;0.30;;;;;;;23.09;71.55;100034.59;5006931;28;20493;-51
2023/08/05 09:26:32;;;;;;;0.50;0.30;;;;;;;22.85;70.18;100020.38;5008915;28;20452;-51
2023/08/05 09:28:59;;;;;;;0.50;0.30;;;;;;;22.89;71.49;100022.72;5005034;28;20944;-51
2023/08/05 09:31:26;;;;;;;0.50;0.20;;;;;;;23.18;68.94;100020.25;5001870;28;21017;-51
2023/08/05 09:33:52;;;;;;;0.50;0.20;;;;;;;22.98;68.19;100018.34;5005543;28;20449;-51
2023/08/05 09:36:27;;;;;;;0.50;0.20;;;;;;;23.15;68.41;100019.63;5008502;28;20433;-51
2023/08/05 09:39:11;;;;;;;0.50;0.30;;;;;;;23.58;65.83;100019.56;4999047;28;20536;-51
2023/08/05 09:41:39;;;;;;;0.50;0.20;;;;;;;23.79;63.40;100014.94;5009273;28;20479;-51
2023/08/05 09:44:09;;;;;;;0.50;0.30;;;;;;;23.29;65.36;100006.59;4999140;28;20459;-51
2023/08/05 09:46:41;;;;;;;0.50;0.20;;;;;;;23.85;65.06;100006.28;4993199;28;20534;-51
2023/08/05 09:49:10;;;;;;;0.50;0.30;;;;;;;24.40;61.70;99998.66;5008414;28;20483;-51
2023/08/05 09:51:38;;;;;;;0.50;0.30;;;;;;;24.48;57.86;99990.66;5003939;28;20455;-51
2023/08/05 09:54:08;;;;;;;0.50;0.20;;;;;;;24.61;56.98;99986.81;5001041;28;20446;-51
2023/08/05 09:56:37;;;;;;;0.50;0.20;;;;;;;24.64;62.73;100000.09;5005179;28;20481;-51
2023/08/05 09:59:06;;;;;;;0.50;0.20;;;;;;;24.39;57.17;99999.63;5008213;28;20454;-51
2023/08/05 10:01:36;;;;;;;0.50;0.30;;;;;;;24.60;57.40;99985.94;5004873;28;20465;-51
2023/08/05 10:04:03;;;;;;;0.50;0.20;;;;;;;24.06;57.94;99984.50;5001208;28;20496;-51
2023/08/05 10:06:30;;;;;;;0.50;0.23;;;;;;;24.33;60.39;99964.00;5003375;28;20503;-51
2023/08/05 10:08:57;;;;;;;0.50;0.30;;;;;;;24.53;58.28;99963.03;5004419;28;20457;-51
2023/08/05 10:11:24;;;;;;;0.50;0.20;;;;;;;24.94;57.36;99966.50;5002570;28;20466;-51
2023/08/05 10:13:53;;;;;;;0.50;0.20;;;;;;;24.99;57.42;99970.50;5007676;28;20521;-60
2023/08/05 10:16:20;;;;;;;0.50;0.30;;;;;;;25.54;56.40;99962.56;5006161;28;20438;-51
2023/08/05 10:18:48;;;;;;;0.50;0.30;;;;;;;25.42;54.96;99965.63;5000987;28;20430;-51
2023/08/05 10:21:41;;;;;;;0.50;0.30;;;;;;;25.83;53.56;99957.06;5002393;28;20473;-51
2023/08/05 10:24:07;;;;;;;0.50;0.30;;;;;;;26.13;52.98;99955.91;5002162;28;20488;-51
2023/08/05 10:26:42;;;;;;;0.50;0.30;;;;;;;26.32;53.88;99945.94;5001227;28;20523;-51
2023/08/05 10:29:28;;;;;;;0.50;0.30;;;;;;;26.07;52.47;99940.19;5004265;28;20449;-51
2023/08/05 10:32:13;;;;;;;0.50;0.30;;;;;;;25.91;52.57;99938.13;5006862;28;20481;-51
2023/08/05 10:34:40;;;;;;;0.50;0.30;;;;;;;25.54;53.21;99948.97;5005546;28;20496;-51
2023/08/05 10:37:06;;;;;;;0.50;0.20;;;;;;;25.58;52.10;99935.91;5003664;28;20488;-51
2023/08/05 10:39:39;;;;;;;0.50;0.20;;;;;;;25.66;54.81;99939.63;5000578;28;20469;-51
2023/08/05 10:42:32;;;;;;;0.50;0.30;;;;;;;25.70;52.70;99918.41;5004434;28;20453;-55
2023/08/05 10:44:59;;;;;;;0.50;0.30;;;;;;;26.09;53.09;99918.22;4997364;28;20492;-51
2023/08/05 10:47:26;;;;;;;0.50;0.30;;;;;;;26.43;50.39;99930.22;5012443;28;20459;-51
2023/08/05 10:49:57;;;;;;;0.50;0.30;;;;;;;26.31;51.42;99928.69;4993796;28;20477;-51
2023/08/05 10:52:28;;;;;;;0.50;0.30;;;;;;;26.31;50.39;99917.78;4994976;28;20456;-51
2023/08/05 10:54:55;;;;;;;0.50;0.30;;;;;;;26.77;50.98;99908.56;4996329;28;20445;-51
2023/08/05 10:57:33;;;;;;;0.50;0.30;;;;;;;26.57;50.90;99910.59;4996919;28;20445;-50
2023/08/05 11:00:01;;;;;;;0.50;0.30;;;;;;;27.24;49.17;99907.41;4998400;28;20498;-50
2023/08/05 11:02:28;;;;;;;0.50;0.30;;;;;;;26.76;49.53;99904.13;5004923;28;20868;-50
2023/08/05 11:05:05;;;;;;;0.50;0.20;;;;;;;26.72;48.56;99888.22;4997514;28;20491;-50
2023/08/05 11:07:34;;;;;;;0.50;0.30;;;;;;;26.56;48.20;99887.06;5006970;28;20453;-50
2023/08/05 11:10:03;;;;;;;0.50;0.30;;;;;;;26.21;50.58;99885.16;5001666;28;20469;-50
2023/08/05 11:12:30;;;;;;;0.50;0.30;;;;;;;25.50;52.17;99886.81;4981236;28;20455;-50
2023/08/05 11:15:01;;;;;;;0.50;0.30;;;;;;;25.78;52.76;99882.28;4997657;28;20537;-50
2023/08/05 11:17:27;;;;;;;0.50;0.30;;;;;;;25.59;51.40;99877.72;5013067;28;20510;-50
2023/08/05 11:19:56;;;;;;;0.50;0.30;;;;;;;25.53;52.22;99881.06;4999533;28;20561;-50
2023/08/05 11:22:27;;;;;;;0.50;0.30;;;;;;;25.75;52.25;99868.94;5005992;28;21002;-50
2023/08/05 11:24:57;;;;;;;0.50;0.30;;;;;;;25.82;52.98;99860.03;5007155;28;20495;-50